sensor_id;sensor_type;location;lat;lon;timestamp;pressure;altitude;pressure_sealevel;temperature;humidity
6413;BME280;3239;48.714;9.472;2023-04-10T00:02:12;98821.25;;;4.55;100.00
6413;BME280;3239;48.714;9.472;2023-04-10T00:04:38;98822.09;;;4.61;100.00
6413;BME280;3239;48.714;9.472;2023-04-10T00:07:04;98823.72;;;4.53;100.00
6413;BME280;3239;48.714;9.472;2023-04-10T00:09:30;98833.72;;;4.76;100.00
6413;BME280;3239;48.714;9.472;2023-04-10T00:11:56;98832.13;;;4.84;100.00
6413;BME280;3239;48.714;9.472;2023-04-10T00:14:22;98829.78;;;4.92;100.00
6413;BME280;3239;48.714;9.472;2023-04-10T00:16:49;98828.19;;;5.49;100.00
6413;BME280;3239;48.714;9.472;2023-04-10T00:19:18;98820.28;;;5.51;100.00
6413;BME280;3239;48.714;9.472;2023-04-10T00:21:44;98819.91;;;5.78;100.00
6413;BME280;3239;48.714;9.472;2023-04-10T00:24:10;98801.38;;;5.96;100.00
6413;BME280;3239;48.714;9.472;2023-04-10T00:26:36;98799.31;;;6.11;100.00
6413;BME280;3239;48.714;9.472;2023-04-10T00:29:02;98786.50;;;6.17;100.00
6413;BME280;3239;48.714;9.472;2023-04-10T00:31:29;98788.81;;;6.24;100.00
6413;BME280;3239;48.714;9.472;2023-04-10T00:33:55;98787.50;;;6.40;100.00
6413;BME280;3239;48.714;9.472;2023-04-10T00:36:20;98784.81;;;6.45;100.00
6413;BME280;3239;48.714;9.472;2023-04-10T00:38:47;98773.97;;;6.51;100.00
6413;BME280;3239;48.714;9.472;2023-04-10T00:41:14;98766.28;;;6.49;100.00
6413;BME280;3239;48.714;9.472;2023-04-10T00:43:42;98768.25;;;6.49;100.00
6413;BME280;3239;48.714;9.472;2023-04-10T00:46:08;98770.78;;;6.52;100.00
6413;BME280;3239;48.714;9.472;2023-04-10T00:48:34;98762.16;;;6.59;100.00
6413;BME280;3239;48.714;9.472;2023-04-10T00:51:00;98755.72;;;6.57;100.00
6413;BME280;3239;48.714;9.472;2023-04-10T00:53:27;98753.94;;;6.54;100.00
6413;BME280;3239;48.714;9.472;2023-04-10T00:55:54;98754.75;;;6.60;100.00
6413;BME280;3239;48.714;9.472;2023-04-10T00:58:20;98749.03;;;6.58;100.00
6413;BME280;3239;48.714;9.472;2023-04-10T01:00:47;98752.16;;;6.45;100.00
6413;BME280;3239;48.714;9.472;2023-04-10T01:03:15;98751.38;;;6.14;100.00
6413;BME280;3239;48.714;9.472;2023-04-10T01:09:09;98753.22;;;6.02;100.00
6413;BME280;3239;48.714;9.472;2023-04-10T01:15:11;98764.63;;;5.66;100.00
6413;BME280;3239;48.714;9.472;2023-04-10T01:20:31;98775.31;;;4.81;100.00
6413;BME280;3239;48.714;9.472;2023-04-10T01:23:39;98787.00;;;4.87;100.00
6413;BME280;3239;48.714;9.472;2023-04-10T01:26:09;98793.47;;;4.75;100.00
6413;BME280;3239;48.714;9.472;2023-04-10T01:29:14;98803.69;;;4.51;100.00
6413;BME280;3239;48.714;9.472;2023-04-10T01:32:03;98809.28;;;4.62;100.00
6413;BME280;3239;48.714;9.472;2023-04-10T01:34:44;98807.50;;;4.59;100.00
6413;BME280;3239;48.714;9.472;2023-04-10T01:37:31;98809.03;;;4.60;100.00
6413;BME280;3239;48.714;9.472;2023-04-10T01:40:02;98811.25;;;4.61;100.00
6413;BME280;3239;48.714;9.472;2023-04-10T01:42:34;98807.25;;;4.57;100.00
6413;BME280;3239;48.714;9.472;2023-04-10T01:45:05;98807.69;;;4.41;100.00
6413;BME280;3239;48.714;9.472;2023-04-10T01:47:32;98813.78;;;4.36;100.00
6413;BME280;3239;48.714;9.472;2023-04-10T01:49:59;98810.50;;;4.32;100.00
6413;BME280;3239;48.714;9.472;2023-04-10T01:52:27;98813.13;;;4.41;100.00
6413;BME280;3239;48.714;9.472;2023-04-10T01:54:55;98816.03;;;4.37;100.00
6413;BME280;3239;48.714;9.472;2023-04-10T01:57:21;98812.56;;;4.37;100.00
6413;BME280;3239;48.714;9.472;2023-04-10T01:59:48;98815.44;;;4.19;100.00
6413;BME280;3239;48.714;9.472;2023-04-10T02:02:13;98814.13;;;4.14;100.00
6413;BME280;3239;48.714;9.472;2023-04-10T02:04:39;98819.06;;;4.16;100.00
6413;BME280;3239;48.714;9.472;2023-04-10T02:07:10;98820.94;;;4.10;100.00
6413;BME280;3239;48.714;9.472;2023-04-10T02:09:59;98822.44;;;4.11;100.00
6413;BME280;3239;48.714;9.472;2023-04-10T02:12:45;98810.16;;;4.01;100.00
6413;BME280;3239;48.714;9.472;2023-04-10T02:15:11;98815.56;;;4.01;100.00
6413;BME280;3239;48.714;9.472;2023-04-10T02:17:38;98813.63;;;4.01;100.00
6413;BME280;3239;48.714;9.472;2023-04-10T02:20:05;98819.41;;;3.94;100.00
6413;BME280;3239;48.714;9.472;2023-04-10T02:22:32;98818.38;;;3.92;100.00
6413;BME280;3239;48.714;9.472;2023-04-10T02:24:58;98812.00;;;3.95;100.00
6413;BME280;3239;48.714;9.472;2023-04-10T02:27:34;98814.16;;;3.91;100.00
6413;BME280;3239;48.714;9.472;2023-04-10T02:30:00;98815.25;;;4.22;100.00
6413;BME280;3239;48.714;9.472;2023-04-10T02:32:28;98801.81;;;3.90;100.00
6413;BME280;3239;48.714;9.472;2023-04-10T02:34:55;98813.69;;;3.92;100.00
6413;BME280;3239;48.714;9.472;2023-04-10T02:37:22;98805.56;;;3.92;100.00
6413;BME280;3239;48.714;9.472;2023-04-10T02:39:47;98809.25;;;3.80;100.00
6413;BME280;3239;48.714;9.472;2023-04-10T02:42:13;98813.47;;;3.81;100.00
6413;BME280;3239;48.714;9.472;2023-04-10T02:44:40;98818.84;;;3.67;100.00
6413;BME280;3239;48.714;9.472;2023-04-10T02:47:06;98822.13;;;3.71;100.00
6413;BME280;3239;48.714;9.472;2023-04-10T02:49:35;98828.81;;;3.61;100.00
6413;BME280;3239;48.714;9.472;2023-04-10T02:52:01;98834.41;;;3.57;100.00
6413;BME280;3239;48.714;9.472;2023-04-10T02:54:27;98823.13;;;3.59;100.00
6413;BME280;3239;48.714;9.472;2023-04-10T02:56:53;98821.59;;;3.58;100.00
6413;BME280;3239;48.714;9.472;2023-04-10T02:59:19;98815.91;;;3.56;100.00
6413;BME280;3239;48.714;9.472;2023-04-10T03:01:45;98828.41;;;3.53;100.00
6413;BME280;3239;48.714;9.472;2023-04-10T03:04:12;98820.75;;;3.52;100.00
6413;BME280;3239;48.714;9.472;2023-04-10T03:06:37;98823.84;;;3.59;100.00
6413;BME280;3239;48.714;9.472;2023-04-10T03:09:03;98828.66;;;3.64;100.00
6413;BME280;3239;48.714;9.472;2023-04-10T03:11:30;98829.28;;;3.59;100.00
6413;BME280;3239;48.714;9.472;2023-04-10T03:13:56;98822.78;;;3.66;100.00
6413;BME280;3239;48.714;9.472;2023-04-10T03:16:24;98821.78;;;3.78;100.00
6413;BME280;3239;48.714;9.472;2023-04-10T03:18:52;98826.91;;;3.76;100.00
6413;BME280;3239;48.714;9.472;2023-04-10T03:21:17;98827.84;;;3.73;100.00
6413;BME280;3239;48.714;9.472;2023-04-10T03:23:43;98832.97;;;3.71;100.00
6413;BME280;3239;48.714;9.472;2023-04-10T03:26:09;98838.81;;;3.78;100.00
6413;BME280;3239;48.714;9.472;2023-04-10T03:28:35;98843.47;;;3.78;100.00
6413;BME280;3239;48.714;9.472;2023-04-10T03:31:02;98841.19;;;3.76;100.00
6413;BME280;3239;48.714;9.472;2023-04-10T03:33:28;98829.09;;;3.86;100.00
6413;BME280;3239;48.714;9.472;2023-04-10T03:35:54;98829.41;;;3.88;100.00
6413;BME280;3239;48.714;9.472;2023-04-10T03:38:21;98827.41;;;3.89;100.00
6413;BME280;3239;48.714;9.472;2023-04-10T03:40:47;98831.53;;;3.84;100.00
6413;BME280;3239;48.714;9.472;2023-04-10T03:43:13;98823.41;;;3.84;100.00
6413;BME280;3239;48.714;9.472;2023-04-10T03:45:39;98819.94;;;3.84;100.00
6413;BME280;3239;48.714;9.472;2023-04-10T03:48:05;98814.31;;;3.87;100.00
6413;BME280;3239;48.714;9.472;2023-04-10T03:50:30;98802.69;;;3.96;100.00
6413;BME280;3239;48.714;9.472;2023-04-10T03:52:56;98805.03;;;4.03;100.00
6413;BME280;3239;48.714;9.472;2023-04-10T03:55:22;98805.31;;;4.05;100.00
6413;BME280;3239;48.714;9.472;2023-04-10T03:57:48;98805.94;;;4.00;100.00
6413;BME280;3239;48.714;9.472;2023-04-10T04:00:15;98811.81;;;3.60;100.00
6413;BME280;3239;48.714;9.472;2023-04-10T04:02:41;98812.41;;;3.32;100.00
6413;BME280;3239;48.714;9.472;2023-04-10T04:05:08;98812.94;;;3.21;100.00
6413;BME280;3239;48.714;9.472;2023-04-10T04:07:34;98817.13;;;3.22;100.00
6413;BME280;3239;48.714;9.472;2023-04-10T04:10:01;98818.34;;;3.21;100.00
6413;BME280;3239;48.714;9.472;2023-04-10T04:12:27;98828.94;;;3.10;100.00
6413;BME280;3239;48.714;9.472;2023-04-10T04:14:53;98820.47;;;3.17;100.00
6413;BME280;3239;48.714;9.472;2023-04-10T04:17:18;98818.56;;;3.09;100.00
6413;BME280;3239;48.714;9.472;2023-04-10T04:19:44;98833.97;;;2.85;100.00
6413;BME280;3239;48.714;9.472;2023-04-10T04:22:10;98827.66;;;2.79;100.00
6413;BME280;3239;48.714;9.472;2023-04-10T04:24:36;98834.88;;;2.91;100.00
6413;BME280;3239;48.714;9.472;2023-04-10T04:27:02;98836.38;;;2.92;100.00
6413;BME280;3239;48.714;9.472;2023-04-10T04:29:28;98831.75;;;2.74;100.00
6413;BME280;3239;48.714;9.472;2023-04-10T04:31:54;98830.72;;;2.72;100.00
6413;BME280;3239;48.714;9.472;2023-04-10T04:34:19;98833.69;;;2.74;100.00
6413;BME280;3239;48.714;9.472;2023-04-10T04:36:45;98838.38;;;2.73;100.00
6413;BME280;3239;48.714;9.472;2023-04-10T04:39:11;98832.53;;;3.07;100.00
6413;BME280;3239;48.714;9.472;2023-04-10T04:41:37;98835.28;;;3.63;100.00
6413;BME280;3239;48.714;9.472;2023-04-10T04:44:04;98821.97;;;4.12;100.00
6413;BME280;3239;48.714;9.472;2023-04-10T04:46:30;98814.16;;;4.58;100.00
6413;BME280;3239;48.714;9.472;2023-04-10T04:48:55;98793.06;;;4.96;100.00
6413;BME280;3239;48.714;9.472;2023-04-10T04:51:21;98782.94;;;5.11;100.00
6413;BME280;3239;48.714;9.472;2023-04-10T04:53:47;98764.13;;;5.08;100.00
6413;BME280;3239;48.714;9.472;2023-04-10T04:56:13;98759.97;;;5.12;100.00
6413;BME280;3239;48.714;9.472;2023-04-10T04:58:39;98750.53;;;5.08;100.00
6413;BME280;3239;48.714;9.472;2023-04-10T05:01:05;98753.63;;;5.01;100.00
6413;BME280;3239;48.714;9.472;2023-04-10T05:03:31;98754.56;;;5.12;100.00
6413;BME280;3239;48.714;9.472;2023-04-10T05:05:57;98742.97;;;5.12;100.00
6413;BME280;3239;48.714;9.472;2023-04-10T05:08:23;98752.53;;;5.27;100.00
6413;BME280;3239;48.714;9.472;2023-04-10T05:10:49;98742.22;;;5.31;100.00
6413;BME280;3239;48.714;9.472;2023-04-10T05:13:15;98730.19;;;5.38;100.00
6413;BME280;3239;48.714;9.472;2023-04-10T05:15:42;98732.56;;;5.50;100.00
6413;BME280;3239;48.714;9.472;2023-04-10T05:18:09;98726.06;;;5.62;100.00
6413;BME280;3239;48.714;9.472;2023-04-10T05:20:35;98727.34;;;5.67;100.00
6413;BME280;3239;48.714;9.472;2023-04-10T05:23:01;98720.13;;;5.84;100.00
6413;BME280;3239;48.714;9.472;2023-04-10T05:25:27;98724.13;;;5.88;100.00
6413;BME280;3239;48.714;9.472;2023-04-10T05:27:52;98723.06;;;6.06;100.00
6413;BME280;3239;48.714;9.472;2023-04-10T05:30:18;98717.84;;;6.02;100.00
6413;BME280;3239;48.714;9.472;2023-04-10T05:32:44;98718.66;;;6.08;100.00
6413;BME280;3239;48.714;9.472;2023-04-10T05:35:13;98722.59;;;6.07;100.00
6413;BME280;3239;48.714;9.472;2023-04-10T05:37:38;98714.94;;;6.31;100.00
6413;BME280;3239;48.714;9.472;2023-04-10T05:40:05;98710.84;;;6.47;100.00
6413;BME280;3239;48.714;9.472;2023-04-10T05:42:32;98703.22;;;6.56;100.00
6413;BME280;3239;48.714;9.472;2023-04-10T05:44:57;98705.88;;;6.45;100.00
6413;BME280;3239;48.714;9.472;2023-04-10T05:47:23;98709.25;;;6.66;100.00
6413;BME280;3239;48.714;9.472;2023-04-10T05:49:49;98701.09;;;6.66;100.00
6413;BME280;3239;48.714;9.472;2023-04-10T05:52:14;98697.38;;;6.69;100.00
6413;BME280;3239;48.714;9.472;2023-04-10T05:54:40;98700.97;;;6.86;100.00
6413;BME280;3239;48.714;9.472;2023-04-10T05:57:06;98705.44;;;6.89;100.00
6413;BME280;3239;48.714;9.472;2023-04-10T05:59:31;98703.31;;;7.04;100.00
6413;BME280;3239;48.714;9.472;2023-04-10T06:01:57;98702.84;;;7.11;100.00
6413;BME280;3239;48.714;9.472;2023-04-10T06:04:23;98702.00;;;7.36;100.00
6413;BME280;3239;48.714;9.472;2023-04-10T06:06:49;98702.78;;;7.47;100.00
6413;BME280;3239;48.714;9.472;2023-04-10T06:09:14;98693.16;;;7.57;100.00
6413;BME280;3239;48.714;9.472;2023-04-10T06:11:40;98689.69;;;7.62;100.00
6413;BME280;3239;48.714;9.472;2023-04-10T06:14:06;98698.97;;;8.03;100.00
6413;BME280;3239;48.714;9.472;2023-04-10T06:16:32;98697.03;;;8.26;100.00
6413;BME280;3239;48.714;9.472;2023-04-10T06:18:57;98704.25;;;8.40;100.00
6413;BME280;3239;48.714;9.472;2023-04-10T06:21:23;98696.81;;;8.57;100.00
6413;BME280;3239;48.714;9.472;2023-04-10T06:23:50;98699.28;;;8.77;100.00
6413;BME280;3239;48.714;9.472;2023-04-10T06:26:16;98692.53;;;8.83;100.00
6413;BME280;3239;48.714;9.472;2023-04-10T06:28:41;98686.75;;;9.14;100.00
6413;BME280;3239;48.714;9.472;2023-04-10T06:31:07;98678.59;;;9.09;100.00
6413;BME280;3239;48.714;9.472;2023-04-10T06:33:33;98678.06;;;9.21;100.00
6413;BME280;3239;48.714;9.472;2023-04-10T06:36:03;98673.06;;;9.31;100.00
6413;BME280;3239;48.714;9.472;2023-04-10T06:38:29;98679.47;;;9.39;100.00
6413;BME280;3239;48.714;9.472;2023-04-10T06:40:55;98680.16;;;9.56;100.00
6413;BME280;3239;48.714;9.472;2023-04-10T06:43:21;98676.69;;;9.50;100.00
6413;BME280;3239;48.714;9.472;2023-04-10T06:45:46;98670.88;;;9.70;100.00
6413;BME280;3239;48.714;9.472;2023-04-10T06:48:12;98671.16;;;9.66;100.00
6413;BME280;3239;48.714;9.472;2023-04-10T06:50:38;98673.66;;;9.64;100.00
6413;BME280;3239;48.714;9.472;2023-04-10T06:53:04;98670.16;;;9.69;100.00
6413;BME280;3239;48.714;9.472;2023-04-10T06:55:30;98678.09;;;9.73;100.00
6413;BME280;3239;48.714;9.472;2023-04-10T06:57:56;98677.72;;;9.93;100.00
6413;BME280;3239;48.714;9.472;2023-04-10T07:00:22;98665.31;;;10.27;100.00
6413;BME280;3239;48.714;9.472;2023-04-10T07:02:48;98662.94;;;10.12;100.00
6413;BME280;3239;48.714;9.472;2023-04-10T07:05:14;98662.16;;;10.17;100.00
6413;BME280;3239;48.714;9.472;2023-04-10T07:07:41;98668.03;;;10.62;100.00
6413;BME280;3239;48.714;9.472;2023-04-10T07:10:07;98664.34;;;10.54;100.00
6413;BME280;3239;48.714;9.472;2023-04-10T07:12:34;98668.88;;;10.99;100.00
6413;BME280;3239;48.714;9.472;2023-04-10T07:14:59;98671.03;;;11.30;100.00
6413;BME280;3239;48.714;9.472;2023-04-10T07:17:25;98665.16;;;10.97;100.00
6413;BME280;3239;48.714;9.472;2023-04-10T07:19:51;98669.72;;;11.13;100.00
6413;BME280;3239;48.714;9.472;2023-04-10T07:22:17;98663.34;;;11.05;100.00
6413;BME280;3239;48.714;9.472;2023-04-10T07:24:43;98669.56;;;11.48;100.00
6413;BME280;3239;48.714;9.472;2023-04-10T07:27:08;98672.81;;;11.70;100.00
6413;BME280;3239;48.714;9.472;2023-04-10T07:29:34;98670.56;;;12.37;98.66
6413;BME280;3239;48.714;9.472;2023-04-10T07:32:00;98663.19;;;12.14;93.54
6413;BME280;3239;48.714;9.472;2023-04-10T07:34:26;98666.09;;;12.03;90.92
6413;BME280;3239;48.714;9.472;2023-04-10T07:36:52;98673.81;;;12.67;86.29
6413;BME280;3239;48.714;9.472;2023-04-10T07:39:17;98673.75;;;12.10;86.45
6413;BME280;3239;48.714;9.472;2023-04-10T07:41:43;98667.34;;;12.20;89.10
6413;BME280;3239;48.714;9.472;2023-04-10T07:44:09;98671.59;;;12.66;82.47
6413;BME280;3239;48.714;9.472;2023-04-10T07:46:35;98673.44;;;12.76;77.22
6413;BME280;3239;48.714;9.472;2023-04-10T07:49:02;98676.84;;;13.21;75.34
6413;BME280;3239;48.714;9.472;2023-04-10T07:51:28;98668.81;;;13.49;71.34
6413;BME280;3239;48.714;9.472;2023-04-10T07:53:54;98678.97;;;13.15;68.20
6413;BME280;3239;48.714;9.472;2023-04-10T07:56:20;98668.88;;;13.70;67.71
6413;BME280;3239;48.714;9.472;2023-04-10T07:58:47;98674.84;;;13.94;68.99
6413;BME280;3239;48.714;9.472;2023-04-10T08:01:14;98679.13;;;14.16;63.47
6413;BME280;3239;48.714;9.472;2023-04-10T08:03:42;98680.53;;;14.09;62.47
6413;BME280;3239;48.714;9.472;2023-04-10T08:06:09;98675.84;;;14.17;62.36
6413;BME280;3239;48.714;9.472;2023-04-10T08:08:37;98670.97;;;13.77;61.94
6413;BME280;3239;48.714;9.472;2023-04-10T08:11:28;98673.78;;;13.97;63.41
6413;BME280;3239;48.714;9.472;2023-04-10T08:13:57;98672.34;;;13.83;65.10
6413;BME280;3239;48.714;9.472;2023-04-10T08:16:24;98669.75;;;14.52;62.90
6413;BME280;3239;48.714;9.472;2023-04-10T08:18:52;98662.16;;;14.45;61.32
6413;BME280;3239;48.714;9.472;2023-04-10T08:21:20;98660.38;;;15.32;55.82
6413;BME280;3239;48.714;9.472;2023-04-10T08:23:46;98660.31;;;14.89;55.73
6413;BME280;3239;48.714;9.472;2023-04-10T08:26:15;98657.03;;;14.98;55.48
6413;BME280;3239;48.714;9.472;2023-04-10T08:28:40;98659.56;;;15.44;56.91
6413;BME280;3239;48.714;9.472;2023-04-10T08:31:11;98660.44;;;15.75;52.96
6413;BME280;3239;48.714;9.472;2023-04-10T08:33:37;98647.84;;;14.47;52.40
6413;BME280;3239;48.714;9.472;2023-04-10T08:36:03;98651.75;;;15.00;53.97
6413;BME280;3239;48.714;9.472;2023-04-10T08:38:30;98652.31;;;14.78;55.19
6413;BME280;3239;48.714;9.472;2023-04-10T08:40:57;98652.81;;;14.97;52.72
6413;BME280;3239;48.714;9.472;2023-04-10T08:43:22;98656.25;;;15.18;51.85
6413;BME280;3239;48.714;9.472;2023-04-10T08:45:50;98641.03;;;15.24;52.21
6413;BME280;3239;48.714;9.472;2023-04-10T08:48:18;98654.19;;;15.11;50.06
6413;BME280;3239;48.714;9.472;2023-04-10T08:50:45;98651.28;;;14.06;52.45
6413;BME280;3239;48.714;9.472;2023-04-10T08:53:13;98644.53;;;14.97;53.13
6413;BME280;3239;48.714;9.472;2023-04-10T08:55:40;98649.03;;;14.59;52.57
6413;BME280;3239;48.714;9.472;2023-04-10T08:58:07;98646.81;;;15.06;53.06
6413;BME280;3239;48.714;9.472;2023-04-10T09:00:34;98643.97;;;15.54;51.87
6413;BME280;3239;48.714;9.472;2023-04-10T09:03:00;98640.38;;;15.39;49.95
6413;BME280;3239;48.714;9.472;2023-04-10T09:05:29;98643.69;;;14.81;50.50
6413;BME280;3239;48.714;9.472;2023-04-10T09:07:56;98634.25;;;14.97;50.34
6413;BME280;3239;48.714;9.472;2023-04-10T09:10:22;98635.28;;;15.15;51.61
6413;BME280;3239;48.714;9.472;2023-04-10T09:12:48;98636.28;;;15.75;51.89
6413;BME280;3239;48.714;9.472;2023-04-10T09:15:14;98640.50;;;15.69;48.88
6413;BME280;3239;48.714;9.472;2023-04-10T09:17:54;98628.63;;;16.04;46.76
6413;BME280;3239;48.714;9.472;2023-04-10T09:20:24;98635.22;;;15.86;48.00
6413;BME280;3239;48.714;9.472;2023-04-10T09:22:51;98629.03;;;16.23;45.71
6413;BME280;3239;48.714;9.472;2023-04-10T09:25:46;98625.41;;;16.43;46.26
6413;BME280;3239;48.714;9.472;2023-04-10T09:28:12;98626.75;;;17.41;45.18
6413;BME280;3239;48.714;9.472;2023-04-10T09:30:40;98621.88;;;16.80;45.75
6413;BME280;3239;48.714;9.472;2023-04-10T09:33:26;98620.00;;;17.05;43.33
6413;BME280;3239;48.714;9.472;2023-04-10T09:35:53;98611.19;;;16.84;43.96
6413;BME280;3239;48.714;9.472;2023-04-10T09:38:22;98620.53;;;17.65;43.37
6413;BME280;3239;48.714;9.472;2023-04-10T09:40:48;98608.09;;;17.42;42.14
6413;BME280;3239;48.714;9.472;2023-04-10T09:43:25;98615.09;;;17.82;40.61
6413;BME280;3239;48.714;9.472;2023-04-10T09:45:53;98610.69;;;17.25;42.08
6413;BME280;3239;48.714;9.472;2023-04-10T09:48:21;98603.63;;;18.42;40.67
6413;BME280;3239;48.714;9.472;2023-04-10T09:50:47;98602.69;;;19.06;40.49
6413;BME280;3239;48.714;9.472;2023-04-10T09:53:15;98592.31;;;19.23;38.91
6413;BME280;3239;48.714;9.472;2023-04-10T09:55:42;98579.75;;;19.66;37.10
6413;BME280;3239;48.714;9.472;2023-04-10T09:58:09;98573.69;;;18.82;38.49
6413;BME280;3239;48.714;9.472;2023-04-10T10:00:47;98570.75;;;18.39;39.03
6413;BME280;3239;48.714;9.472;2023-04-10T10:03:16;98556.97;;;18.65;37.16
6413;BME280;3239;48.714;9.472;2023-04-10T10:05:48;98565.13;;;18.22;35.48
6413;BME280;3239;48.714;9.472;2023-04-10T10:08:14;98552.81;;;17.51;35.61
6413;BME280;3239;48.714;9.472;2023-04-10T10:10:47;98552.78;;;18.40;37.35
6413;BME280;3239;48.714;9.472;2023-04-10T10:13:49;98548.50;;;18.97;34.98
6413;BME280;3239;48.714;9.472;2023-04-10T10:16:42;98550.31;;;19.36;33.77
6413;BME280;3239;48.714;9.472;2023-04-10T10:19:15;98536.75;;;19.40;32.24
6413;BME280;3239;48.714;9.472;2023-04-10T10:21:43;98527.78;;;18.98;34.79
6413;BME280;3239;48.714;9.472;2023-04-10T10:24:11;98532.19;;;20.24;34.50
6413;BME280;3239;48.714;9.472;2023-04-10T10:26:39;98522.84;;;19.93;32.09
6413;BME280;3239;48.714;9.472;2023-04-10T10:29:09;98521.06;;;19.62;32.67
6413;BME280;3239;48.714;9.472;2023-04-10T10:31:39;98516.31;;;18.60;31.97
6413;BME280;3239;48.714;9.472;2023-04-10T10:34:05;98524.06;;;20.55;30.65
6413;BME280;3239;48.714;9.472;2023-04-10T10:36:35;98513.00;;;19.56;31.80
6413;BME280;3239;48.714;9.472;2023-04-10T10:39:45;98511.50;;;21.20;30.55
6413;BME280;3239;48.714;9.472;2023-04-10T10:42:29;98515.97;;;20.04;31.24
6413;BME280;3239;48.714;9.472;2023-04-10T10:48:06;98502.78;;;20.40;30.17
6413;BME280;3239;48.714;9.472;2023-04-10T10:50:52;98496.09;;;20.72;29.77
6413;BME280;3239;48.714;9.472;2023-04-10T10:53:44;98490.81;;;20.02;30.01
6413;BME280;3239;48.714;9.472;2023-04-10T10:58:50;98480.47;;;19.76;31.02
6413;BME280;3239;48.714;9.472;2023-04-10T11:01:18;98480.69;;;20.80;29.95
6413;BME280;3239;48.714;9.472;2023-04-10T11:03:44;98479.00;;;19.75;31.26
6413;BME280;3239;48.714;9.472;2023-04-10T11:06:29;98477.31;;;21.20;29.53
6413;BME280;3239;48.714;9.472;2023-04-10T11:09:07;98468.53;;;20.85;28.36
6413;BME280;3239;48.714;9.472;2023-04-10T11:11:56;98462.34;;;19.05;30.80
6413;BME280;3239;48.714;9.472;2023-04-10T11:14:23;98470.03;;;18.46;31.75
6413;BME280;3239;48.714;9.472;2023-04-10T11:16:49;98464.00;;;18.57;31.50
6413;BME280;3239;48.714;9.472;2023-04-10T11:19:15;98461.22;;;17.98;32.70
6413;BME280;3239;48.714;9.472;2023-04-10T11:22:06;98461.00;;;18.62;31.26
6413;BME280;3239;48.714;9.472;2023-04-10T11:24:55;98448.59;;;18.63;32.29
6413;BME280;3239;48.714;9.472;2023-04-10T11:27:55;98456.84;;;18.12;32.67
6413;BME280;3239;48.714;9.472;2023-04-10T11:30:28;98450.66;;;18.04;33.84
6413;BME280;3239;48.714;9.472;2023-04-10T11:32:55;98453.41;;;18.46;33.15
6413;BME280;3239;48.714;9.472;2023-04-10T11:35:21;98454.13;;;18.63;31.51
6413;BME280;3239;48.714;9.472;2023-04-10T11:37:47;98449.19;;;19.05;31.57
6413;BME280;3239;48.714;9.472;2023-04-10T11:40:13;98436.88;;;18.99;32.08
6413;BME280;3239;48.714;9.472;2023-04-10T11:42:39;98442.50;;;19.08;31.49
6413;BME280;3239;48.714;9.472;2023-04-10T11:45:27;98434.09;;;18.31;31.76
6413;BME280;3239;48.714;9.472;2023-04-10T11:47:54;98441.34;;;19.11;30.88
6413;BME280;3239;48.714;9.472;2023-04-10T11:50:20;98441.00;;;18.81;31.71
6413;BME280;3239;48.714;9.472;2023-04-10T11:52:49;98436.28;;;19.00;31.30
6413;BME280;3239;48.714;9.472;2023-04-10T11:55:15;98433.41;;;19.25;30.72
6413;BME280;3239;48.714;9.472;2023-04-10T11:57:43;98428.41;;;19.50;31.25
6413;BME280;3239;48.714;9.472;2023-04-10T12:00:10;98424.50;;;19.26;29.59
6413;BME280;3239;48.714;9.472;2023-04-10T12:02:52;98436.78;;;19.59;28.27
6413;BME280;3239;48.714;9.472;2023-04-10T12:05:18;98450.94;;;19.01;28.88
6413;BME280;3239;48.714;9.472;2023-04-10T12:07:44;98431.34;;;19.25;27.76
6413;BME280;3239;48.714;9.472;2023-04-10T12:10:10;98431.03;;;18.78;28.81
6413;BME280;3239;48.714;9.472;2023-04-10T12:12:36;98426.66;;;19.01;26.87
6413;BME280;3239;48.714;9.472;2023-04-10T12:15:06;98423.44;;;19.05;26.99
6413;BME280;3239;48.714;9.472;2023-04-10T12:17:48;98418.78;;;18.30;28.86
6413;BME280;3239;48.714;9.472;2023-04-10T12:20:14;98412.47;;;18.80;30.16
6413;BME280;3239;48.714;9.472;2023-04-10T12:22:41;98397.16;;;18.62;29.12
6413;BME280;3239;48.714;9.472;2023-04-10T12:25:11;98403.19;;;18.68;29.49
6413;BME280;3239;48.714;9.472;2023-04-10T12:27:37;98390.16;;;19.31;29.70
6413;BME280;3239;48.714;9.472;2023-04-10T12:30:07;98386.94;;;19.35;31.52
6413;BME280;3239;48.714;9.472;2023-04-10T12:32:33;98382.72;;;19.34;29.55
6413;BME280;3239;48.714;9.472;2023-04-10T12:34:59;98378.63;;;18.65;29.43
6413;BME280;3239;48.714;9.472;2023-04-10T12:37:51;98383.03;;;19.38;29.96
6413;BME280;3239;48.714;9.472;2023-04-10T12:40:17;98377.25;;;19.62;30.13
6413;BME280;3239;48.714;9.472;2023-04-10T12:42:45;98382.78;;;19.53;30.89
6413;BME280;3239;48.714;9.472;2023-04-10T12:45:11;98359.38;;;18.93;30.63
6413;BME280;3239;48.714;9.472;2023-04-10T12:47:45;98368.44;;;19.20;29.94
6413;BME280;3239;48.714;9.472;2023-04-10T12:50:18;98371.75;;;19.36;29.76
6413;BME280;3239;48.714;9.472;2023-04-10T12:53:01;98364.31;;;19.93;30.54
6413;BME280;3239;48.714;9.472;2023-04-10T12:55:27;98362.88;;;20.49;30.20
6413;BME280;3239;48.714;9.472;2023-04-10T12:57:55;98370.00;;;19.14;28.42
6413;BME280;3239;48.714;9.472;2023-04-10T13:00:22;98369.22;;;18.77;28.77
6413;BME280;3239;48.714;9.472;2023-04-10T13:02:48;98352.06;;;18.88;28.73
6413;BME280;3239;48.714;9.472;2023-04-10T13:05:14;98349.81;;;19.40;28.50
6413;BME280;3239;48.714;9.472;2023-04-10T13:07:40;98344.28;;;18.87;29.18
6413;BME280;3239;48.714;9.472;2023-04-10T13:10:07;98345.47;;;19.20;29.03
6413;BME280;3239;48.714;9.472;2023-04-10T13:12:34;98341.91;;;19.27;29.39
6413;BME280;3239;48.714;9.472;2023-04-10T13:15:01;98346.13;;;19.28;29.06
6413;BME280;3239;48.714;9.472;2023-04-10T13:17:27;98343.97;;;18.56;28.58
6413;BME280;3239;48.714;9.472;2023-04-10T13:19:53;98334.03;;;18.80;28.90
6413;BME280;3239;48.714;9.472;2023-04-10T13:22:19;98339.22;;;18.49;28.65
6413;BME280;3239;48.714;9.472;2023-04-10T13:24:45;98336.22;;;18.55;28.62
6413;BME280;3239;48.714;9.472;2023-04-10T13:27:11;98326.84;;;19.03;29.13
6413;BME280;3239;48.714;9.472;2023-04-10T13:29:42;98333.97;;;19.23;28.75
6413;BME280;3239;48.714;9.472;2023-04-10T13:32:08;98327.78;;;18.89;28.47
6413;BME280;3239;48.714;9.472;2023-04-10T13:34:34;98316.22;;;18.56;28.75
6413;BME280;3239;48.714;9.472;2023-04-10T13:37:00;98307.66;;;18.98;28.51
6413;BME280;3239;48.714;9.472;2023-04-10T13:39:28;98294.25;;;19.04;27.49
6413;BME280;3239;48.714;9.472;2023-04-10T13:41:55;98295.31;;;19.54;27.83
6413;BME280;3239;48.714;9.472;2023-04-10T13:44:21;98297.53;;;19.65;28.32
6413;BME280;3239;48.714;9.472;2023-04-10T13:46:47;98295.78;;;18.88;28.00